createdAt,value
2024-03-05T00:02:18.447Z,98114.81
2024-03-05T00:04:45.328Z,98106.88
2024-03-05T00:07:12.029Z,98115.56
2024-03-05T00:09:38.637Z,98117.88
2024-03-05T00:12:05.465Z,98110.44
2024-03-05T00:14:32.478Z,98107.25
2024-03-05T00:16:59.127Z,98111.25
2024-03-05T00:19:28.600Z,98109.19
2024-03-05T00:21:55.104Z,98103.84
2024-03-05T00:24:21.691Z,98104.09
2024-03-05T00:26:48.815Z,98099.69
2024-03-05T00:29:17.117Z,98096.72
2024-03-05T00:31:43.818Z,98107.78
2024-03-05T00:34:10.354Z,98103.72
2024-03-05T00:36:36.820Z,98105.78
2024-03-05T00:39:04.470Z,98104.97
2024-03-05T00:41:30.946Z,98093.66
2024-03-05T00:43:57.875Z,98099.66
2024-03-05T00:46:26.092Z,98100.13
2024-03-05T00:48:52.970Z,98103.78
2024-03-05T00:51:19.467Z,98101.72
2024-03-05T00:53:45.986Z,98103.78
2024-03-05T00:56:12.493Z,98104.13
2024-03-05T00:58:39.059Z,98104.53
2024-03-05T01:01:08.340Z,98103.38
2024-03-05T01:03:34.943Z,98094.97
2024-03-05T01:06:01.782Z,98103.28
2024-03-05T01:08:29.060Z,98102.47
2024-03-05T01:10:55.742Z,98096.94
2024-03-05T01:13:22.586Z,98110.69
2024-03-05T01:15:49.200Z,98100.03
2024-03-05T01:18:15.769Z,98097.22
2024-03-05T01:20:43.066Z,98100.00
2024-03-05T01:23:13.137Z,98098.81
2024-03-05T01:25:39.907Z,98097.75
2024-03-05T01:28:08.684Z,98097.84
2024-03-05T01:30:35.812Z,98101.63
2024-03-05T01:33:06.667Z,98102.50
2024-03-05T01:35:33.513Z,98101.19
2024-03-05T01:38:00.006Z,98102.25
2024-03-05T01:40:26.566Z,98097.63
2024-03-05T01:42:53.060Z,98096.88
2024-03-05T01:45:19.931Z,98094.38
2024-03-05T01:47:49.143Z,98095.81
2024-03-05T01:50:16.790Z,98104.59
2024-03-05T01:52:44.986Z,98098.56
2024-03-05T01:55:15.680Z,98106.78
2024-03-05T01:57:45.019Z,98099.66
2024-03-05T02:00:16.385Z,98100.78
2024-03-05T02:02:45.979Z,98097.44
2024-03-05T02:05:13.711Z,98105.44
2024-03-05T02:07:41.462Z,98104.75
2024-03-05T02:10:11.239Z,98104.56
2024-03-05T02:12:38.026Z,98100.44
2024-03-05T02:15:12.375Z,98099.19
2024-03-05T02:17:40.488Z,98102.38
2024-03-05T02:20:11.133Z,98102.84
2024-03-05T02:22:40.779Z,98100.25
2024-03-05T02:25:07.817Z,98103.00
2024-03-05T02:27:36.598Z,98103.09
2024-03-05T02:30:11.042Z,98107.72
2024-03-05T02:32:42.725Z,98104.66
2024-03-05T02:35:12.472Z,98101.00
2024-03-05T02:37:40.135Z,98101.28
2024-03-05T02:40:11.073Z,98101.59
2024-03-05T02:42:38.262Z,98096.47
2024-03-05T02:45:08.545Z,98100.59
2024-03-05T02:47:43.391Z,98102.44
2024-03-05T02:50:11.118Z,98101.16
2024-03-05T02:52:39.992Z,98103.81
2024-03-05T02:55:10.597Z,98104.19
2024-03-05T02:57:42.284Z,98096.63
2024-03-05T03:00:10.084Z,98100.28
2024-03-05T03:02:36.781Z,98110.22
2024-03-05T03:05:03.361Z,98107.84
2024-03-05T03:07:29.870Z,98102.69
2024-03-05T03:09:56.381Z,98102.69
2024-03-05T03:12:23.308Z,98098.81
2024-03-05T03:14:49.852Z,98103.69
2024-03-05T03:17:16.561Z,98103.09
2024-03-05T03:19:44.162Z,98101.59
2024-03-05T03:22:10.717Z,98104.66
2024-03-05T03:24:37.291Z,98103.28
2024-03-05T03:27:03.915Z,98108.59
2024-03-05T03:29:30.543Z,98108.41
2024-03-05T03:31:57.417Z,98108.00
2024-03-05T03:34:24.110Z,98103.50
2024-03-05T03:36:50.634Z,98100.50
2024-03-05T03:39:25.036Z,98104.44
2024-03-05T03:41:54.481Z,98102.31
2024-03-05T03:44:21.910Z,98099.84
2024-03-05T03:46:48.937Z,98103.84
2024-03-05T03:49:15.850Z,98103.31
2024-03-05T03:51:44.208Z,98099.09
2024-03-05T03:54:10.910Z,98108.31
2024-03-05T03:56:37.704Z,98108.59
2024-03-05T03:59:04.645Z,98109.97
2024-03-05T04:01:32.688Z,98112.41
2024-03-05T04:04:00.258Z,98112.06
2024-03-05T04:06:26.720Z,98115.13
2024-03-05T04:08:53.637Z,98107.44
2024-03-05T04:11:20.190Z,98116.84
2024-03-05T04:13:46.830Z,98110.28
2024-03-05T04:16:13.671Z,98114.03
2024-03-05T04:18:40.342Z,98111.22
2024-03-05T04:21:06.921Z,98107.34
2024-03-05T04:23:34.116Z,98119.75
2024-03-05T04:26:08.377Z,98117.34
2024-03-05T04:28:49.800Z,98115.00
2024-03-05T04:31:21.284Z,98110.72
2024-03-05T04:33:49.336Z,98115.19
2024-03-05T04:36:16.910Z,98113.34
2024-03-05T04:38:44.545Z,98113.44
2024-03-05T04:41:16.946Z,98120.00
2024-03-05T04:43:43.555Z,98123.34
2024-03-05T04:46:12.335Z,98119.28
2024-03-05T04:48:41.912Z,98126.88
2024-03-05T04:51:09.739Z,98130.13
2024-03-05T04:53:39.963Z,98130.53
2024-03-05T04:56:07.819Z,98129.44
2024-03-05T04:58:35.700Z,98133.03
2024-03-05T05:01:02.231Z,98129.66
2024-03-05T05:03:28.769Z,98130.72
2024-03-05T05:05:58.382Z,98137.34
2024-03-05T05:08:25.009Z,98127.16
2024-03-05T05:10:51.736Z,98129.03
2024-03-05T05:13:18.753Z,98136.19
2024-03-05T05:15:47.441Z,98133.38
2024-03-05T05:18:15.248Z,98122.78
2024-03-05T05:20:42.379Z,98117.47
2024-03-05T05:23:09.239Z,98126.66
2024-03-05T05:25:35.783Z,98121.22
2024-03-05T05:28:02.333Z,98137.28
2024-03-05T05:30:28.852Z,98138.56
2024-03-05T05:32:56.061Z,98140.91
2024-03-05T05:35:22.810Z,98144.25
2024-03-05T05:37:49.428Z,98139.09
2024-03-05T05:40:20.941Z,98136.69
2024-03-05T05:42:50.230Z,98142.25
2024-03-05T05:45:17.008Z,98141.53
2024-03-05T05:47:52.400Z,98139.69
2024-03-05T05:50:19.988Z,98134.69
2024-03-05T05:52:51.923Z,98143.56
2024-03-05T05:55:21.472Z,98139.56
2024-03-05T05:57:49.157Z,98139.66
2024-03-05T06:00:46.918Z,98146.38
2024-03-05T06:03:13.707Z,98146.50
2024-03-05T06:05:43.625Z,98148.47
2024-03-05T06:08:13.290Z,98164.28
2024-03-05T06:10:40.348Z,98165.63
2024-03-05T06:13:08.033Z,98164.47
2024-03-05T06:15:35.303Z,98167.28
2024-03-05T06:18:02.568Z,98165.13
2024-03-05T06:20:29.323Z,98163.16
2024-03-05T06:22:57.547Z,98167.16
2024-03-05T06:25:24.218Z,98174.16
2024-03-05T06:27:50.738Z,98177.66
2024-03-05T06:30:19.085Z,98174.00
2024-03-05T06:32:48.238Z,98176.59
2024-03-05T06:35:14.745Z,98185.72
2024-03-05T06:37:45.437Z,98178.56
2024-03-05T06:40:17.616Z,98178.75
2024-03-05T06:42:52.951Z,98183.53
2024-03-05T06:45:28.292Z,98185.63
2024-03-05T06:48:11.060Z,98184.47
2024-03-05T06:50:43.476Z,98190.81
2024-03-05T06:53:29.635Z,98192.44
2024-03-05T06:56:14.629Z,98187.72
2024-03-05T06:58:43.799Z,98194.69
2024-03-05T07:01:10.298Z,98189.13
2024-03-05T07:03:39.365Z,98196.72
2024-03-05T07:06:10.876Z,98191.09
2024-03-05T07:08:41.827Z,98192.72
2024-03-05T07:11:10.937Z,98195.81
2024-03-05T07:13:38.777Z,98196.59
2024-03-05T07:16:08.589Z,98192.69
2024-03-05T07:18:37.219Z,98197.91
2024-03-05T07:21:04.910Z,98204.47
2024-03-05T07:23:31.650Z,98199.56
2024-03-05T07:25:58.469Z,98203.53
2024-03-05T07:28:27.193Z,98206.38
2024-03-05T07:30:54.509Z,98202.31
2024-03-05T07:33:24.456Z,98201.66
2024-03-05T07:35:50.983Z,98201.13
2024-03-05T07:38:17.890Z,98203.09
2024-03-05T07:40:46.604Z,98208.41
2024-03-05T07:43:13.272Z,98203.91
2024-03-05T07:45:40.127Z,98194.00
2024-03-05T07:48:07.707Z,98194.25
2024-03-05T07:50:34.404Z,98193.69
2024-03-05T07:53:01.030Z,98195.63
2024-03-05T07:55:32.097Z,98194.34
2024-03-05T07:58:02.585Z,98193.28
2024-03-05T08:00:29.262Z,98189.97
2024-03-05T08:02:55.923Z,98194.13
2024-03-05T08:05:23.549Z,98189.94
2024-03-05T08:07:54.971Z,98193.06
2024-03-05T08:10:23.138Z,98196.66
2024-03-05T08:12:51.335Z,98199.25
2024-03-05T08:15:18.604Z,98202.00
2024-03-05T08:17:52.768Z,98193.75
2024-03-05T08:20:20.687Z,98195.69
2024-03-05T08:22:47.992Z,98208.66
2024-03-05T08:25:18.738Z,98203.78
2024-03-05T08:27:55.375Z,98201.16
2024-03-05T08:30:23.803Z,98210.38
2024-03-05T08:32:52.492Z,98203.38
2024-03-05T08:35:20.585Z,98197.75
2024-03-05T08:37:48.562Z,98205.91
2024-03-05T08:40:17.182Z,98202.84
2024-03-05T08:42:51.333Z,98209.19
2024-03-05T08:45:21.460Z,98206.97
2024-03-05T08:47:49.603Z,98211.84
2024-03-05T08:50:16.203Z,98208.28
2024-03-05T08:52:43.533Z,98204.94
2024-03-05T08:55:11.631Z,98205.38
2024-03-05T08:57:39.054Z,98200.78
2024-03-05T09:00:16.232Z,98204.91
2024-03-05T09:02:52.676Z,98209.28
2024-03-05T09:05:19.266Z,98210.13
2024-03-05T09:07:45.765Z,98215.38
2024-03-05T09:10:12.378Z,98209.16
2024-03-05T09:12:38.912Z,98212.28
2024-03-05T09:15:07.166Z,98210.66
2024-03-05T09:17:35.227Z,98210.50
2024-03-05T09:20:14.885Z,98209.91
2024-03-05T09:22:45.770Z,98216.16
2024-03-05T09:25:13.906Z,98217.22
2024-03-05T09:27:42.081Z,98226.19
2024-03-05T09:30:09.660Z,98225.25
2024-03-05T09:32:37.060Z,98218.13
2024-03-05T09:35:10.032Z,98211.91
2024-03-05T09:37:37.858Z,98217.06
2024-03-05T09:40:07.732Z,98212.19
2024-03-05T09:42:36.737Z,98216.91
2024-03-05T09:45:06.771Z,98216.78
2024-03-05T09:47:37.648Z,98224.66
2024-03-05T09:50:07.026Z,98229.75
2024-03-05T09:52:35.251Z,98229.09
2024-03-05T09:55:02.453Z,98222.84
2024-03-05T09:57:30.365Z,98225.94
2024-03-05T09:59:57.354Z,98220.34
2024-03-05T10:02:27.238Z,98224.13
2024-03-05T10:05:00.395Z,98231.03
2024-03-05T10:07:28.059Z,98234.16
2024-03-05T10:10:14.017Z,98236.25
2024-03-05T10:12:41.234Z,98238.81
2024-03-05T10:15:20.028Z,98234.25
2024-03-05T10:17:52.316Z,98234.47
2024-03-05T10:20:30.103Z,98239.13
2024-03-05T10:23:00.162Z,98245.72
2024-03-05T10:25:30.868Z,98233.19
2024-03-05T10:27:57.962Z,98236.75
2024-03-05T10:30:28.782Z,98238.97
2024-03-05T10:33:00.420Z,98235.69
2024-03-05T10:35:28.070Z,98241.69
2024-03-05T10:38:04.292Z,98240.56
2024-03-05T10:40:33.452Z,98242.75
2024-03-05T10:43:02.158Z,98240.91
2024-03-05T10:45:29.596Z,98239.34
2024-03-05T10:47:59.974Z,98244.97
2024-03-05T10:50:28.106Z,98246.19
2024-03-05T10:52:56.875Z,98247.69
2024-03-05T10:55:24.703Z,98246.13
2024-03-05T10:58:11.354Z,98249.81
2024-03-05T11:00:42.106Z,98244.06
2024-03-05T11:03:13.059Z,98248.69
2024-03-05T11:05:48.711Z,98244.81
2024-03-05T11:08:18.857Z,98242.47
2024-03-05T11:10:51.244Z,98246.34
2024-03-05T11:13:18.931Z,98248.38
2024-03-05T11:15:46.056Z,98251.63
2024-03-05T11:18:28.544Z,98248.44
2024-03-05T11:20:55.430Z,98244.97
2024-03-05T11:23:26.334Z,98247.41
2024-03-05T11:25:53.574Z,98247.84
2024-03-05T11:28:21.939Z,98247.84
2024-03-05T11:30:48.563Z,98240.81
2024-03-05T11:33:19.961Z,98248.44
2024-03-05T11:35:47.327Z,98244.25
2024-03-05T11:38:15.055Z,98247.34
2024-03-05T11:40:43.641Z,98257.81
2024-03-05T11:43:10.231Z,98242.53
2024-03-05T11:45:54.922Z,98247.03
2024-03-05T11:48:22.018Z,98249.69
2024-03-05T11:50:49.361Z,98244.06
2024-03-05T11:53:16.187Z,98242.28
2024-03-05T11:55:43.354Z,98252.69
2024-03-05T11:58:11.955Z,98256.66
2024-03-05T12:00:38.638Z,98256.16
2024-03-05T12:03:05.303Z,98253.50
2024-03-05T12:05:31.757Z,98254.94
2024-03-05T12:08:08.126Z,98257.59
2024-03-05T12:10:37.201Z,98251.94
2024-03-05T12:13:04.964Z,98254.78
2024-03-05T12:15:36.290Z,98250.22
2024-03-05T12:18:11.648Z,98255.94
2024-03-05T12:20:42.390Z,98256.66
2024-03-05T12:23:09.798Z,98254.31
2024-03-05T12:25:36.640Z,98255.94
2024-03-05T12:28:03.328Z,98250.72
2024-03-05T12:30:39.033Z,98254.31
2024-03-05T12:33:06.658Z,98254.38
2024-03-05T12:35:33.282Z,98255.81
2024-03-05T12:38:04.279Z,98249.91
2024-03-05T12:40:32.813Z,98250.13
2024-03-05T12:43:25.824Z,98254.78
2024-03-05T12:45:59.622Z,98251.44
2024-03-05T12:48:27.193Z,98254.31
2024-03-05T12:50:54.858Z,98256.53
2024-03-05T12:53:21.558Z,98262.19
2024-03-05T12:55:48.191Z,98265.63
2024-03-05T12:58:14.686Z,98261.53
2024-03-05T13:00:41.223Z,98260.69
2024-03-05T13:03:09.669Z,98255.56
2024-03-05T13:05:40.306Z,98256.72
2024-03-05T13:08:10.063Z,98261.84
2024-03-05T13:10:36.783Z,98247.19
2024-03-05T13:13:03.541Z,98261.06
2024-03-05T13:15:30.034Z,98260.72
2024-03-05T13:17:56.721Z,98267.19
2024-03-05T13:20:25.374Z,98267.81
2024-03-05T13:22:54.911Z,98262.88
2024-03-05T13:25:25.393Z,98259.28
2024-03-05T13:27:53.352Z,98262.84
2024-03-05T13:30:23.865Z,98257.34
2024-03-05T13:32:53.539Z,98255.16
2024-03-05T13:35:20.291Z,98265.13
2024-03-05T13:37:49.690Z,98257.97
2024-03-05T13:40:20.172Z,98261.78
2024-03-05T13:42:47.414Z,98256.59
2024-03-05T13:45:16.905Z,98264.94
2024-03-05T13:47:44.299Z,98265.72
2024-03-05T13:50:13.434Z,98262.88
2024-03-05T13:52:44.473Z,98257.16
2024-03-05T13:55:12.690Z,98266.50
2024-03-05T13:57:40.604Z,98260.84
2024-03-05T14:00:08.824Z,98267.50
2024-03-05T14:02:36.717Z,98264.78
2024-03-05T14:05:04.338Z,98267.84
2024-03-05T14:07:31.908Z,98268.31
2024-03-05T14:09:58.869Z,98266.97
2024-03-05T14:12:25.573Z,98266.78
2024-03-05T14:14:52.118Z,98276.91
2024-03-05T14:17:18.608Z,98274.69
2024-03-05T14:19:45.254Z,98268.84
2024-03-05T14:22:12.549Z,98267.63
2024-03-05T14:24:39.506Z,98276.81
2024-03-05T14:27:06.528Z,98281.16
2024-03-05T14:29:33.095Z,98278.50
2024-03-05T14:31:59.723Z,98282.50
2024-03-05T14:34:28.400Z,98271.75
2024-03-05T14:36:55.059Z,98272.34
2024-03-05T14:39:22.212Z,98276.44
2024-03-05T14:41:48.888Z,98271.50
2024-03-05T14:44:15.532Z,98274.16
2024-03-05T14:46:42.461Z,98284.44
2024-03-05T14:49:09.110Z,98279.59
2024-03-05T14:51:36.362Z,98270.78
2024-03-05T14:54:03.070Z,98271.03
2024-03-05T14:56:31.515Z,98278.69
2024-03-05T14:58:58.325Z,98278.66
2024-03-05T15:01:26.828Z,98285.44
2024-03-05T15:03:53.510Z,98278.53
2024-03-05T15:06:20.849Z,98276.19
2024-03-05T15:08:47.490Z,98284.19
2024-03-05T15:11:14.178Z,98286.47
2024-03-05T15:13:40.769Z,98279.63
2024-03-05T15:16:08.996Z,98285.03
2024-03-05T15:18:36.502Z,98289.13
2024-03-05T15:21:14.942Z,98283.06
2024-03-05T15:23:42.276Z,98294.22
2024-03-05T15:26:10.367Z,98294.69
2024-03-05T15:28:38.100Z,98294.03
2024-03-05T15:31:10.466Z,98291.44
2024-03-05T15:33:40.938Z,98290.75
2024-03-05T15:36:08.429Z,98294.31
2024-03-05T15:38:35.922Z,98290.53
2024-03-05T15:41:05.949Z,98290.06
2024-03-05T15:43:33.369Z,98293.47
2024-03-05T15:45:59.992Z,98299.50
2024-03-05T15:48:26.548Z,98294.75
2024-03-05T15:50:53.321Z,98298.88
2024-03-05T15:53:24.128Z,98296.22
2024-03-05T15:55:59.392Z,98300.63
2024-03-05T15:58:44.313Z,98301.13
2024-03-05T16:01:12.520Z,98300.19
2024-03-05T16:03:56.799Z,98305.38
2024-03-05T16:06:29.195Z,98315.78
2024-03-05T16:08:55.801Z,98309.13
2024-03-05T16:11:24.832Z,98317.72
2024-03-05T16:13:52.254Z,98316.28
2024-03-05T16:16:21.032Z,98316.53
2024-03-05T16:18:47.933Z,98312.94
2024-03-05T16:21:15.715Z,98321.53
2024-03-05T16:23:42.317Z,98323.13
2024-03-05T16:26:10.391Z,98319.41
2024-03-05T16:28:39.232Z,98320.84
2024-03-05T16:31:06.132Z,98323.91
2024-03-05T16:33:33.816Z,98332.50
2024-03-05T16:36:00.633Z,98335.34
2024-03-05T16:38:27.327Z,98340.09
2024-03-05T16:40:54.112Z,98341.06
2024-03-05T16:43:20.857Z,98342.16
2024-03-05T16:45:47.923Z,98346.53
2024-03-05T16:48:14.580Z,98345.56
2024-03-05T16:50:42.180Z,98345.41
2024-03-05T16:53:10.391Z,98356.00
2024-03-05T16:55:37.856Z,98356.56
2024-03-05T16:58:10.764Z,98360.28
2024-03-05T17:00:46.593Z,98362.84
2024-03-05T17:03:15.133Z,98364.69
2024-03-05T17:05:47.186Z,98364.19
2024-03-05T17:08:21.139Z,98366.91
2024-03-05T17:10:49.351Z,98374.72
2024-03-05T17:13:20.567Z,98362.69
2024-03-05T17:15:55.786Z,98374.47
2024-03-05T17:18:23.870Z,98368.06
2024-03-05T17:20:52.135Z,98368.00
2024-03-05T17:23:25.651Z,98374.63
2024-03-05T17:25:53.342Z,98376.72
2024-03-05T17:28:20.360Z,98379.38
2024-03-05T17:30:47.390Z,98378.81
2024-03-05T17:33:15.736Z,98385.50
2024-03-05T17:35:42.897Z,98385.13
2024-03-05T17:38:11.196Z,98393.00
2024-03-05T17:40:38.454Z,98398.75
2024-03-05T17:43:05.547Z,98395.84
2024-03-05T17:45:33.076Z,98402.28
2024-03-05T17:48:06.073Z,98407.38
2024-03-05T17:50:33.311Z,98409.31
2024-03-05T17:52:59.940Z,98408.19
2024-03-05T17:55:26.818Z,98410.66
2024-03-05T17:57:53.476Z,98405.81
2024-03-05T18:00:23.223Z,98406.91
2024-03-05T18:02:51.902Z,98420.28
2024-03-05T18:05:19.788Z,98419.78
2024-03-05T18:07:47.428Z,98412.63
2024-03-05T18:10:14.216Z,98415.59
2024-03-05T18:12:41.177Z,98421.69
2024-03-05T18:15:08.778Z,98417.03
2024-03-05T18:17:40.328Z,98423.25
2024-03-05T18:20:12.591Z,98420.31
2024-03-05T18:22:40.822Z,98422.97
2024-03-05T18:25:21.138Z,98428.97
2024-03-05T18:27:49.318Z,98437.00
2024-03-05T18:30:21.183Z,98424.69
2024-03-05T18:32:48.434Z,98432.78
2024-03-05T18:35:17.769Z,98438.53
2024-03-05T18:37:45.451Z,98439.78
2024-03-05T18:40:16.393Z,98431.97
2024-03-05T18:42:45.260Z,98436.44
2024-03-05T18:45:18.723Z,98444.06
2024-03-05T18:47:59.195Z,98443.47
2024-03-05T18:50:32.321Z,98439.28
2024-03-05T18:53:00.131Z,98438.75
2024-03-05T18:55:29.874Z,98437.94
2024-03-05T18:57:56.864Z,98439.63
2024-03-05T19:00:24.614Z,98435.56
2024-03-05T19:02:51.978Z,98432.78
2024-03-05T19:05:20.093Z,98429.84
2024-03-05T19:07:47.737Z,98426.75
2024-03-05T19:10:14.362Z,98420.75
2024-03-05T19:12:41.345Z,98433.03
2024-03-05T19:15:08.676Z,98436.41
2024-03-05T19:17:35.861Z,98437.38
2024-03-05T19:20:02.934Z,98440.03
2024-03-05T19:22:30.303Z,98435.13
2024-03-05T19:24:59.729Z,98441.16
2024-03-05T19:27:26.543Z,98443.22
2024-03-05T19:29:56.348Z,98436.66
2024-03-05T19:32:23.017Z,98442.66
2024-03-05T19:34:49.587Z,98436.13
2024-03-05T19:37:17.098Z,98440.56
2024-03-05T19:39:43.649Z,98440.81
2024-03-05T19:42:11.515Z,98445.00
2024-03-05T19:44:38.618Z,98441.22
2024-03-05T19:47:05.309Z,98443.38
2024-03-05T19:49:32.025Z,98453.00
2024-03-05T19:51:59.688Z,98443.19
2024-03-05T19:54:29.192Z,98452.28
2024-03-05T19:56:57.091Z,98462.06
2024-03-05T19:59:24.069Z,98455.22
2024-03-05T20:01:50.742Z,98455.50
2024-03-05T20:04:17.694Z,98457.16
2024-03-05T20:06:44.779Z,98463.28
2024-03-05T20:09:14.445Z,98462.84
2024-03-05T20:11:41.577Z,98460.72
2024-03-05T20:14:09.935Z,98464.69
2024-03-05T20:16:36.891Z,98469.13
2024-03-05T20:19:03.570Z,98464.34
2024-03-05T20:21:30.191Z,98465.50
2024-03-05T20:23:57.552Z,98477.00
2024-03-05T20:26:24.126Z,98468.50
2024-03-05T20:28:53.755Z,98473.16
2024-03-05T20:31:22.847Z,98476.81
2024-03-05T20:33:49.965Z,98477.47
2024-03-05T20:36:19.549Z,98482.06
2024-03-05T20:38:46.719Z,98482.94
2024-03-05T20:41:14.739Z,98483.59
2024-03-05T20:43:41.531Z,98485.28
2024-03-05T20:46:10.997Z,98489.50
2024-03-05T20:48:38.138Z,98492.78
2024-03-05T20:51:05.153Z,98490.59
2024-03-05T20:53:31.789Z,98488.06
2024-03-05T20:55:58.429Z,98494.13
2024-03-05T20:58:24.938Z,98487.47
2024-03-05T21:00:51.641Z,98493.97
2024-03-05T21:03:22.653Z,98496.16
2024-03-05T21:05:49.342Z,98498.75
2024-03-05T21:08:16.257Z,98500.09
2024-03-05T21:10:44.854Z,98505.34
2024-03-05T21:13:11.470Z,98509.28
2024-03-05T21:15:38.347Z,98511.16
2024-03-05T21:18:09.719Z,98506.00
2024-03-05T21:20:37.482Z,98513.44
2024-03-05T21:23:05.528Z,98514.28
2024-03-05T21:25:39.977Z,98516.53
2024-03-05T21:28:16.419Z,98513.22
2024-03-05T21:30:43.568Z,98514.13
2024-03-05T21:33:10.200Z,98514.84
2024-03-05T21:35:36.782Z,98519.53
2024-03-05T21:38:03.340Z,98518.28
2024-03-05T21:40:29.898Z,98529.47
2024-03-05T21:42:56.464Z,98527.88
2024-03-05T21:45:23.015Z,98527.50
2024-03-05T21:47:50.104Z,98521.84
2024-03-05T21:50:17.249Z,98528.81
2024-03-05T21:52:47.179Z,98531.47
2024-03-05T21:55:14.817Z,98538.91
2024-03-05T21:57:41.517Z,98538.31
2024-03-05T22:00:15.654Z,98537.75
2024-03-05T22:02:42.987Z,98531.19
2024-03-05T22:05:10.691Z,98539.94
2024-03-05T22:07:38.140Z,98540.13
2024-03-05T22:10:07.398Z,98534.19
2024-03-05T22:12:35.140Z,98537.94
2024-03-05T22:15:01.711Z,98535.53
2024-03-05T22:17:28.192Z,98529.47
2024-03-05T22:19:54.721Z,98532.44
2024-03-05T22:22:23.091Z,98529.81
2024-03-05T22:24:49.908Z,98530.03
2024-03-05T22:27:16.554Z,98523.38
2024-03-05T22:29:43.104Z,98536.75
2024-03-05T22:32:09.779Z,98533.50
2024-03-05T22:34:37.377Z,98536.47
2024-03-05T22:37:04.374Z,98523.75
2024-03-05T22:39:30.846Z,98538.00
2024-03-05T22:41:57.364Z,98539.66
2024-03-05T22:44:24.802Z,98543.16
2024-03-05T22:46:51.514Z,98536.63
2024-03-05T22:49:18.636Z,98547.53
2024-03-05T22:51:45.174Z,98545.72
2024-03-05T22:54:11.620Z,98551.25
2024-03-05T22:56:38.517Z,98549.69
2024-03-05T22:59:05.154Z,98544.94
2024-03-05T23:01:32.604Z,98549.31
2024-03-05T23:03:59.148Z,98546.97
2024-03-05T23:06:26.591Z,98552.66
2024-03-05T23:08:53.242Z,98563.72
2024-03-05T23:11:19.871Z,98557.78
2024-03-05T23:13:46.605Z,98552.34
2024-03-05T23:16:13.254Z,98547.13
2024-03-05T23:18:39.806Z,98545.81
2024-03-05T23:21:06.671Z,98544.66
2024-03-05T23:23:33.500Z,98543.16
2024-03-05T23:25:59.992Z,98551.53
2024-03-05T23:28:26.443Z,98548.28
2024-03-05T23:30:52.924Z,98544.84
2024-03-05T23:33:19.548Z,98542.28
2024-03-05T23:35:46.328Z,98543.34
2024-03-05T23:38:13.114Z,98547.34
2024-03-05T23:40:40.282Z,98561.81
2024-03-05T23:43:06.843Z,98558.78
2024-03-05T23:45:33.653Z,98560.84
2024-03-05T23:48:00.251Z,98549.97
2024-03-05T23:50:26.777Z,98559.06
2024-03-05T23:52:53.326Z,98561.38
2024-03-05T23:55:20.134Z,98565.41
2024-03-05T23:57:46.783Z,98560.63
